CSN3177 ZGGG-ZBAD
Flight info
| Callsign | CSN3177 |
|---|---|
| Flight time | 2h 24m |
| Altitude | 37100 |
| Route | MIKIP9 MIKIP A461 BUBDA W56 ORODO W62 TEKIL G212 BELAX BELA5L |
| Aircraft | B77W/H-SDE1E2E3FGHIJ2J3J4J5M1RWXY/LB1D1 |
Departure
| Time | 2026-04-30 02:29 |
|---|---|
| Airport | Guangzhou Baiyun International Airport (ZGGG) |
Arrival
| Time | 2026-04-30 04:53 |
|---|---|
| Airport | Beijing Daxing International Airport (ZBAD) |
| Time | Latitude | Longitude | Altitude | Speed | Heading |
|---|---|---|---|---|---|
| 2026-04-30 01:52 | 23.40183 | 113.30161 | 57 ft | 0 kts | 193° |
| 2026-04-30 02:11 | 23.40192 | 113.30164 | 57 ft | 2 kts | 193° |
| 2026-04-30 02:12 | 23.40207 | 113.30167 | 57 ft | 2 kts | 193° |
| 2026-04-30 02:12 | 23.40221 | 113.30171 | 57 ft | 2 kts | 193° |
| 2026-04-30 02:12 | 23.40236 | 113.30175 | 57 ft | 2 kts | 176° |
| 2026-04-30 02:12 | 23.40250 | 113.30170 | 57 ft | 2 kts | 145° |
| 2026-04-30 02:13 | 23.40261 | 113.30159 | 57 ft | 2 kts | 118° |
| 2026-04-30 02:13 | 23.40266 | 113.30144 | 57 ft | 2 kts | 102° |
| 2026-04-30 02:13 | 23.40267 | 113.30136 | 57 ft | 1 kts | 105° |
| 2026-04-30 02:13 | 23.40268 | 113.30132 | 57 ft | 0 kts | 104° |
| 2026-04-30 02:17 | 23.40265 | 113.30144 | 57 ft | 6 kts | 104° |
| 2026-04-30 02:17 | 23.40251 | 113.30203 | 57 ft | 8 kts | 104° |
| 2026-04-30 02:18 | 23.40236 | 113.30289 | 57 ft | 14 kts | 92° |
| 2026-04-30 02:18 | 23.40269 | 113.30380 | 57 ft | 12 kts | 46° |
| 2026-04-30 02:18 | 23.40328 | 113.30447 | 57 ft | 11 kts | 44° |
| 2026-04-30 02:18 | 23.40353 | 113.30532 | 57 ft | 13 kts | 94° |
| 2026-04-30 02:19 | 23.40331 | 113.30638 | 57 ft | 14 kts | 104° |
| 2026-04-30 02:19 | 23.40309 | 113.30737 | 57 ft | 13 kts | 102° |
| 2026-04-30 02:19 | 23.40287 | 113.30843 | 57 ft | 14 kts | 102° |
| 2026-04-30 02:19 | 23.40286 | 113.30846 | 57 ft | 0 kts | 111° |
| 2026-04-30 02:20 | 23.40276 | 113.30855 | 57 ft | 3 kts | 163° |
| 2026-04-30 02:20 | 23.40232 | 113.30849 | 57 ft | 6 kts | 192° |
| 2026-04-30 02:20 | 23.40186 | 113.30836 | 57 ft | 6 kts | 193° |
| 2026-04-30 02:20 | 23.40050 | 113.30802 | 57 ft | 38 kts | 190° |
| 2026-04-30 02:21 | 23.39988 | 113.30784 | 57 ft | 7 kts | 193° |
| 2026-04-30 02:21 | 23.39914 | 113.30765 | 57 ft | 14 kts | 191° |
| 2026-04-30 02:21 | 23.39800 | 113.30733 | 57 ft | 18 kts | 193° |
| 2026-04-30 02:21 | 23.39658 | 113.30697 | 57 ft | 23 kts | 189° |
| 2026-04-30 02:22 | 23.39484 | 113.30647 | 57 ft | 26 kts | 193° |
| 2026-04-30 02:22 | 23.39312 | 113.30602 | 57 ft | 23 kts | 197° |
| 2026-04-30 02:22 | 23.39156 | 113.30560 | 57 ft | 21 kts | 193° |
| 2026-04-30 02:22 | 23.39020 | 113.30523 | 57 ft | 19 kts | 194° |
| 2026-04-30 02:23 | 23.38921 | 113.30497 | 57 ft | 3 kts | 189° |
| 2026-04-30 02:23 | 23.38894 | 113.30493 | 57 ft | 3 kts | 187° |
| 2026-04-30 02:23 | 23.38871 | 113.30497 | 57 ft | 2 kts | 153° |
| 2026-04-30 02:23 | 23.38858 | 113.30512 | 57 ft | 2 kts | 116° |
| 2026-04-30 02:24 | 23.38850 | 113.30537 | 57 ft | 6 kts | 108° |
| 2026-04-30 02:24 | 23.38834 | 113.30599 | 57 ft | 11 kts | 105° |
| 2026-04-30 02:24 | 23.38789 | 113.30654 | 57 ft | 10 kts | 171° |
| 2026-04-30 02:24 | 23.38720 | 113.30643 | 57 ft | 11 kts | 193° |
| 2026-04-30 02:25 | 23.38602 | 113.30611 | 57 ft | 22 kts | 194° |
| 2026-04-30 02:25 | 23.38435 | 113.30566 | 57 ft | 25 kts | 197° |
| 2026-04-30 02:25 | 23.38252 | 113.30518 | 57 ft | 28 kts | 193° |
| 2026-04-30 02:25 | 23.38081 | 113.30470 | 57 ft | 25 kts | 196° |
| 2026-04-30 02:26 | 23.37918 | 113.30424 | 57 ft | 23 kts | 191° |
| 2026-04-30 02:26 | 23.37771 | 113.30388 | 57 ft | 20 kts | 194° |
| 2026-04-30 02:26 | 23.37675 | 113.30360 | 57 ft | 18 kts | 193° |
| 2026-04-30 02:26 | 23.37618 | 113.30378 | 57 ft | 7 kts | 123° |
| 2026-04-30 02:27 | 23.37608 | 113.30407 | 57 ft | 2 kts | 104° |
| 2026-04-30 02:27 | 23.37603 | 113.30430 | 57 ft | 4 kts | 102° |
| 2026-04-30 02:27 | 23.37591 | 113.30489 | 57 ft | 9 kts | 102° |
| 2026-04-30 02:27 | 23.37613 | 113.30540 | 57 ft | 7 kts | 28° |
| 2026-04-30 02:28 | 23.37667 | 113.30558 | 57 ft | 11 kts | 13° |
| 2026-04-30 02:28 | 23.38030 | 113.30644 | 57 ft | 80 kts | 13° |
| 2026-04-30 02:28 | 23.38471 | 113.30775 | 57 ft | 118 kts | 12° |
| 2026-04-30 02:28 | 23.39453 | 113.31044 | 121 ft | 162 kts | 13° |
| 2026-04-30 02:29 | 23.40630 | 113.31315 | 527 ft | 176 kts | 9° |
| 2026-04-30 02:29 | 23.41810 | 113.31518 | 1277 ft | 175 kts | 13° |
| 2026-04-30 02:29 | 23.43045 | 113.31827 | 1862 ft | 189 kts | 14° |
| 2026-04-30 02:29 | 23.44352 | 113.32162 | 2606 ft | 196 kts | 14° |
| 2026-04-30 02:30 | 23.45684 | 113.32505 | 3440 ft | 197 kts | 15° |
| 2026-04-30 02:30 | 23.46979 | 113.33063 | 3989 ft | 212 kts | 24° |
| 2026-04-30 02:30 | 23.48422 | 113.33656 | 4459 ft | 233 kts | 17° |
| 2026-04-30 02:30 | 23.50034 | 113.34159 | 5058 ft | 248 kts | 14° |
| 2026-04-30 02:31 | 23.51728 | 113.34660 | 5821 ft | 256 kts | 13° |
| 2026-04-30 02:31 | 23.53495 | 113.35183 | 6524 ft | 269 kts | 13° |
| 2026-04-30 02:31 | 23.55331 | 113.35725 | 7251 ft | 280 kts | 11° |
| 2026-04-30 02:31 | 23.57242 | 113.36144 | 8133 ft | 284 kts | 7° |
| 2026-04-30 02:32 | 23.59216 | 113.36517 | 9033 ft | 289 kts | 6° |
| 2026-04-30 02:32 | 23.61186 | 113.36886 | 9743 ft | 294 kts | 6° |
| 2026-04-30 02:32 | 23.63223 | 113.37273 | 9978 ft | 297 kts | 6° |
| 2026-04-30 02:32 | 23.65273 | 113.37665 | 9997 ft | 296 kts | 6° |
| 2026-04-30 02:33 | 23.67340 | 113.38059 | 10036 ft | 305 kts | 6° |
| 2026-04-30 02:33 | 23.69503 | 113.38469 | 10443 ft | 328 kts | 6° |
| 2026-04-30 02:33 | 23.71829 | 113.38912 | 11066 ft | 344 kts | 6° |
| 2026-04-30 02:33 | 23.74241 | 113.39374 | 11698 ft | 358 kts | 6° |
| 2026-04-30 02:34 | 23.76744 | 113.39852 | 12315 ft | 373 kts | 7° |
| 2026-04-30 02:34 | 23.79347 | 113.40350 | 12932 ft | 387 kts | 7° |
| 2026-04-30 02:34 | 23.82052 | 113.40868 | 13515 ft | 400 kts | 7° |
| 2026-04-30 02:34 | 23.85751 | 113.41577 | 14522 ft | 410 kts | 7° |
| 2026-04-30 02:35 | 23.87611 | 113.41934 | 15061 ft | 414 kts | 7° |
| 2026-04-30 02:35 | 23.90477 | 113.42484 | 15868 ft | 419 kts | 7° |
| 2026-04-30 02:35 | 23.93369 | 113.43039 | 16659 ft | 424 kts | 7° |
| 2026-04-30 02:35 | 23.96284 | 113.43598 | 17406 ft | 429 kts | 7° |
| 2026-04-30 02:36 | 23.99239 | 113.44165 | 18164 ft | 434 kts | 7° |
| 2026-04-30 02:36 | 24.02195 | 113.44733 | 18937 ft | 437 kts | 7° |
| 2026-04-30 02:36 | 24.05200 | 113.45300 | 19693 ft | 439 kts | 5° |
| 2026-04-30 02:36 | 24.08268 | 113.45508 | 20384 ft | 439 kts | 355° |
| 2026-04-30 02:37 | 24.11307 | 113.45221 | 21063 ft | 441 kts | 350° |
| 2026-04-30 02:37 | 24.14379 | 113.44809 | 21802 ft | 443 kts | 349° |
| 2026-04-30 02:37 | 24.17479 | 113.44387 | 22513 ft | 446 kts | 349° |
| 2026-04-30 02:37 | 24.20556 | 113.43968 | 23185 ft | 449 kts | 349° |
| 2026-04-30 02:38 | 24.23675 | 113.43545 | 23784 ft | 455 kts | 349° |
| 2026-04-30 02:38 | 24.26846 | 113.43115 | 24352 ft | 461 kts | 349° |
| 2026-04-30 02:38 | 24.30064 | 113.42680 | 24914 ft | 467 kts | 349° |
| 2026-04-30 02:38 | 24.33299 | 113.42243 | 25551 ft | 471 kts | 349° |
| 2026-04-30 02:39 | 24.36617 | 113.42066 | 26176 ft | 478 kts | 356° |
| 2026-04-30 02:39 | 24.39957 | 113.42139 | 26791 ft | 483 kts | 357° |
| 2026-04-30 02:39 | 24.43327 | 113.42234 | 27357 ft | 488 kts | 358° |
| 2026-04-30 02:39 | 24.46762 | 113.42335 | 27881 ft | 493 kts | 358° |
| 2026-04-30 02:40 | 24.50175 | 113.42435 | 28393 ft | 499 kts | 358° |
| 2026-04-30 02:40 | 24.53693 | 113.42538 | 28966 ft | 503 kts | 357° |
| 2026-04-30 02:40 | 24.57213 | 113.42639 | 29556 ft | 506 kts | 357° |
| 2026-04-30 02:40 | 24.60758 | 113.42742 | 30319 ft | 506 kts | 357° |
| 2026-04-30 02:41 | 24.64248 | 113.42844 | 31248 ft | 502 kts | 357° |
| 2026-04-30 02:41 | 24.67748 | 113.42946 | 32205 ft | 496 kts | 357° |
| 2026-04-30 02:41 | 24.71151 | 113.43044 | 32994 ft | 493 kts | 356° |
| 2026-04-30 02:41 | 24.74590 | 113.43143 | 33775 ft | 491 kts | 356° |
| 2026-04-30 02:42 | 24.78040 | 113.43241 | 34514 ft | 489 kts | 356° |
| 2026-04-30 02:42 | 24.81416 | 113.43337 | 35249 ft | 487 kts | 356° |
| 2026-04-30 02:42 | 24.84801 | 113.43435 | 35992 ft | 480 kts | 356° |
| 2026-04-30 02:42 | 24.88143 | 113.43531 | 36736 ft | 474 kts | 356° |
| 2026-04-30 02:43 | 24.91427 | 113.43626 | 37248 ft | 471 kts | 356° |
| 2026-04-30 02:43 | 24.98102 | 113.43810 | 37266 ft | 484 kts | 356° |
| 2026-04-30 02:44 | 25.05025 | 113.44005 | 37274 ft | 497 kts | 356° |
| 2026-04-30 02:44 | 25.12098 | 113.44206 | 37270 ft | 506 kts | 356° |
| 2026-04-30 02:45 | 25.19143 | 113.44410 | 37265 ft | 505 kts | 356° |
| 2026-04-30 02:45 | 25.26217 | 113.44614 | 37269 ft | 506 kts | 356° |
| 2026-04-30 02:46 | 25.33270 | 113.44817 | 37267 ft | 506 kts | 356° |
| 2026-04-30 02:46 | 25.40331 | 113.45020 | 37268 ft | 503 kts | 355° |
| 2026-04-30 02:47 | 25.47373 | 113.45222 | 37269 ft | 505 kts | 355° |
| 2026-04-30 02:47 | 25.54443 | 113.45426 | 37275 ft | 505 kts | 355° |
| 2026-04-30 02:48 | 25.61502 | 113.45629 | 37277 ft | 504 kts | 355° |
| 2026-04-30 02:48 | 25.68554 | 113.45833 | 37277 ft | 505 kts | 355° |
| 2026-04-30 02:49 | 25.75514 | 113.46034 | 37278 ft | 502 kts | 355° |
| 2026-04-30 02:49 | 25.82510 | 113.46236 | 37276 ft | 501 kts | 355° |
| 2026-04-30 02:50 | 25.89535 | 113.46370 | 37278 ft | 501 kts | 352° |
| 2026-04-30 02:50 | 25.96511 | 113.46069 | 37282 ft | 498 kts | 351° |
| 2026-04-30 02:51 | 26.03439 | 113.45770 | 37282 ft | 498 kts | 351° |
| 2026-04-30 02:51 | 26.10448 | 113.45482 | 37285 ft | 498 kts | 351° |
| 2026-04-30 02:52 | 26.17390 | 113.45207 | 37284 ft | 499 kts | 351° |
| 2026-04-30 02:52 | 26.24313 | 113.44936 | 37285 ft | 496 kts | 351° |
| 2026-04-30 02:53 | 26.31266 | 113.44666 | 37287 ft | 497 kts | 351° |
| 2026-04-30 02:53 | 26.38218 | 113.44397 | 37289 ft | 496 kts | 351° |
| 2026-04-30 02:54 | 26.45136 | 113.44130 | 37288 ft | 497 kts | 351° |
| 2026-04-30 02:54 | 26.52069 | 113.43862 | 37286 ft | 496 kts | 351° |
| 2026-04-30 02:55 | 26.58973 | 113.43597 | 37288 ft | 496 kts | 351° |
| 2026-04-30 02:55 | 26.65863 | 113.43334 | 37285 ft | 494 kts | 351° |
| 2026-04-30 02:56 | 26.72769 | 113.43069 | 37288 ft | 492 kts | 351° |
| 2026-04-30 02:56 | 26.79607 | 113.42806 | 37290 ft | 492 kts | 351° |
| 2026-04-30 02:57 | 26.86463 | 113.42542 | 37291 ft | 492 kts | 350° |
| 2026-04-30 02:57 | 26.93343 | 113.42276 | 37292 ft | 493 kts | 350° |
| 2026-04-30 02:58 | 27.00210 | 113.42012 | 37298 ft | 490 kts | 350° |
| 2026-04-30 02:58 | 27.07011 | 113.41749 | 37297 ft | 491 kts | 350° |
| 2026-04-30 02:59 | 27.13892 | 113.41482 | 37303 ft | 490 kts | 349° |
| 2026-04-30 02:59 | 27.20700 | 113.41221 | 37297 ft | 485 kts | 349° |
| 2026-04-30 03:00 | 27.27424 | 113.40959 | 37297 ft | 485 kts | 349° |
| 2026-04-30 03:00 | 27.34234 | 113.40707 | 37288 ft | 488 kts | 351° |
| 2026-04-30 03:01 | 27.41018 | 113.40845 | 37300 ft | 489 kts | 352° |
| 2026-04-30 03:01 | 27.47874 | 113.41009 | 37295 ft | 490 kts | 352° |
| 2026-04-30 03:02 | 27.54703 | 113.41161 | 37296 ft | 487 kts | 352° |
| 2026-04-30 03:02 | 27.61489 | 113.41303 | 37292 ft | 485 kts | 352° |
| 2026-04-30 03:03 | 27.68287 | 113.41528 | 37299 ft | 489 kts | 355° |
| 2026-04-30 03:03 | 27.78519 | 113.42499 | 37295 ft | 489 kts | 355° |
| 2026-04-30 03:04 | 27.85303 | 113.43127 | 37297 ft | 487 kts | 355° |
| 2026-04-30 03:04 | 27.92055 | 113.43739 | 37301 ft | 487 kts | 355° |
| 2026-04-30 03:05 | 27.98815 | 113.44338 | 37300 ft | 484 kts | 355° |
| 2026-04-30 03:05 | 28.05609 | 113.44933 | 37298 ft | 487 kts | 354° |
| 2026-04-30 03:06 | 28.12344 | 113.45496 | 37304 ft | 482 kts | 353° |
| 2026-04-30 03:06 | 28.19044 | 113.45963 | 37302 ft | 481 kts | 353° |
| 2026-04-30 03:07 | 28.25774 | 113.46440 | 37297 ft | 479 kts | 353° |
| 2026-04-30 03:07 | 28.32444 | 113.46917 | 37299 ft | 478 kts | 353° |
| 2026-04-30 03:08 | 28.39119 | 113.47395 | 37299 ft | 480 kts | 353° |
| 2026-04-30 03:08 | 28.45774 | 113.47871 | 37296 ft | 477 kts | 353° |
| 2026-04-30 03:09 | 28.52450 | 113.48347 | 37299 ft | 478 kts | 353° |
| 2026-04-30 03:09 | 28.59091 | 113.48821 | 37296 ft | 477 kts | 353° |
| 2026-04-30 03:10 | 28.65745 | 113.49297 | 37298 ft | 477 kts | 352° |
| 2026-04-30 03:10 | 28.72366 | 113.49772 | 37294 ft | 476 kts | 352° |
| 2026-04-30 03:11 | 28.78996 | 113.50247 | 37293 ft | 475 kts | 352° |
| 2026-04-30 03:11 | 28.85625 | 113.50722 | 37297 ft | 478 kts | 352° |
| 2026-04-30 03:12 | 28.92236 | 113.51199 | 37291 ft | 473 kts | 352° |
| 2026-04-30 03:12 | 28.99938 | 113.51754 | 37289 ft | 471 kts | 352° |
| 2026-04-30 03:13 | 29.05417 | 113.52148 | 37292 ft | 471 kts | 352° |
| 2026-04-30 03:13 | 29.11998 | 113.52621 | 37294 ft | 473 kts | 352° |
| 2026-04-30 03:14 | 29.18575 | 113.53098 | 37291 ft | 471 kts | 352° |
| 2026-04-30 03:14 | 29.25134 | 113.53571 | 37306 ft | 472 kts | 352° |
| 2026-04-30 03:15 | 29.31751 | 113.54080 | 37295 ft | 473 kts | 352° |
| 2026-04-30 03:15 | 29.38299 | 113.54656 | 37295 ft | 469 kts | 352° |
| 2026-04-30 03:16 | 29.44830 | 113.55224 | 37295 ft | 473 kts | 353° |
| 2026-04-30 03:16 | 29.51386 | 113.55798 | 37292 ft | 470 kts | 352° |
| 2026-04-30 03:17 | 29.57977 | 113.56369 | 37291 ft | 470 kts | 352° |
| 2026-04-30 03:17 | 29.64492 | 113.56937 | 37288 ft | 469 kts | 352° |
| 2026-04-30 03:18 | 29.71037 | 113.57506 | 37288 ft | 471 kts | 353° |
| 2026-04-30 03:18 | 29.77601 | 113.58077 | 37287 ft | 473 kts | 352° |
| 2026-04-30 03:19 | 29.84170 | 113.58651 | 37284 ft | 473 kts | 352° |
| 2026-04-30 03:19 | 29.90743 | 113.59228 | 37283 ft | 471 kts | 353° |
| 2026-04-30 03:20 | 29.94017 | 113.59795 | 37278 ft | 483 kts | 1° |
| 2026-04-30 03:20 | 29.97309 | 113.60954 | 37276 ft | 501 kts | 9° |
| 2026-04-30 03:20 | 30.03699 | 113.64095 | 37278 ft | 502 kts | 11° |
| 2026-04-30 03:21 | 30.10192 | 113.67348 | 37254 ft | 505 kts | 11° |
| 2026-04-30 03:21 | 30.16691 | 113.70604 | 37273 ft | 507 kts | 12° |
| 2026-04-30 03:22 | 30.23119 | 113.73827 | 37271 ft | 505 kts | 12° |
| 2026-04-30 03:22 | 30.29616 | 113.77086 | 37263 ft | 503 kts | 12° |
| 2026-04-30 03:23 | 30.36035 | 113.80307 | 37265 ft | 503 kts | 12° |
| 2026-04-30 03:23 | 30.42447 | 113.83530 | 37268 ft | 500 kts | 12° |
| 2026-04-30 03:24 | 30.48844 | 113.86749 | 37250 ft | 500 kts | 12° |
| 2026-04-30 03:24 | 30.55279 | 113.89989 | 37257 ft | 501 kts | 12° |
| 2026-04-30 03:25 | 30.61628 | 113.93195 | 37253 ft | 495 kts | 12° |
| 2026-04-30 03:25 | 30.68005 | 113.96333 | 37259 ft | 496 kts | 11° |
| 2026-04-30 03:26 | 30.74331 | 113.99595 | 37261 ft | 495 kts | 15° |
| 2026-04-30 03:26 | 30.80568 | 114.03105 | 37266 ft | 499 kts | 14° |
| 2026-04-30 03:27 | 30.86856 | 114.06523 | 37265 ft | 500 kts | 15° |
| 2026-04-30 03:27 | 30.93176 | 114.09957 | 37272 ft | 498 kts | 14° |
| 2026-04-30 03:28 | 30.96298 | 114.11654 | 37098 ft | 497 kts | 14° |
| 2026-04-30 03:28 | 30.99460 | 114.13374 | 37269 ft | 496 kts | 15° |
| 2026-04-30 03:28 | 31.05752 | 114.16794 | 37261 ft | 497 kts | 15° |
| 2026-04-30 03:29 | 31.12046 | 114.20217 | 37264 ft | 497 kts | 14° |
| 2026-04-30 03:29 | 31.18335 | 114.23641 | 37262 ft | 498 kts | 14° |
| 2026-04-30 03:30 | 31.24675 | 114.27095 | 37265 ft | 504 kts | 15° |
| 2026-04-30 03:30 | 31.30987 | 114.30546 | 37259 ft | 501 kts | 15° |
| 2026-04-30 03:31 | 31.34230 | 114.32059 | 37261 ft | 489 kts | 7° |
| 2026-04-30 03:31 | 31.37497 | 114.32955 | 37258 ft | 480 kts | 359° |
| 2026-04-30 03:31 | 31.44093 | 114.33408 | 37261 ft | 470 kts | 352° |
| 2026-04-30 03:32 | 31.50633 | 114.33604 | 37257 ft | 469 kts | 352° |
| 2026-04-30 03:32 | 31.57199 | 114.33797 | 37257 ft | 470 kts | 352° |
| 2026-04-30 03:33 | 31.63727 | 114.33991 | 37258 ft | 468 kts | 352° |
| 2026-04-30 03:33 | 31.70324 | 114.34185 | 37252 ft | 471 kts | 352° |
| 2026-04-30 03:34 | 31.76877 | 114.34383 | 37248 ft | 468 kts | 352° |
| 2026-04-30 03:34 | 31.83421 | 114.34584 | 37234 ft | 468 kts | 352° |
| 2026-04-30 03:35 | 31.89975 | 114.34779 | 37233 ft | 470 kts | 352° |
| 2026-04-30 03:35 | 31.96501 | 114.34978 | 37227 ft | 467 kts | 352° |
| 2026-04-30 03:36 | 32.03036 | 114.35174 | 37228 ft | 471 kts | 352° |
| 2026-04-30 03:36 | 32.09587 | 114.35374 | 37217 ft | 467 kts | 352° |
| 2026-04-30 03:37 | 32.16136 | 114.35571 | 37226 ft | 470 kts | 352° |
| 2026-04-30 03:37 | 32.22716 | 114.35771 | 37234 ft | 468 kts | 352° |
| 2026-04-30 03:38 | 32.29246 | 114.36095 | 37219 ft | 473 kts | 355° |
| 2026-04-30 03:38 | 32.35818 | 114.36733 | 37212 ft | 472 kts | 356° |
| 2026-04-30 03:39 | 32.42402 | 114.37357 | 37211 ft | 474 kts | 355° |
| 2026-04-30 03:39 | 32.49028 | 114.37976 | 37227 ft | 474 kts | 355° |
| 2026-04-30 03:40 | 32.55630 | 114.38588 | 37212 ft | 472 kts | 355° |
| 2026-04-30 03:40 | 32.62177 | 114.39191 | 37207 ft | 475 kts | 356° |
| 2026-04-30 03:41 | 32.68800 | 114.39804 | 37206 ft | 474 kts | 356° |
| 2026-04-30 03:41 | 32.75433 | 114.40422 | 37200 ft | 476 kts | 356° |
| 2026-04-30 03:42 | 32.82037 | 114.41039 | 37205 ft | 474 kts | 356° |
| 2026-04-30 03:42 | 32.88659 | 114.41657 | 37203 ft | 476 kts | 356° |
| 2026-04-30 03:43 | 32.95255 | 114.42274 | 37195 ft | 476 kts | 356° |
| 2026-04-30 03:43 | 33.01887 | 114.42896 | 37202 ft | 475 kts | 356° |
| 2026-04-30 03:44 | 33.08498 | 114.43516 | 37196 ft | 473 kts | 356° |
| 2026-04-30 03:44 | 33.15094 | 114.44134 | 37188 ft | 474 kts | 357° |
| 2026-04-30 03:45 | 33.21746 | 114.44759 | 37200 ft | 475 kts | 357° |
| 2026-04-30 03:45 | 33.28360 | 114.45381 | 37202 ft | 477 kts | 357° |
| 2026-04-30 03:46 | 33.34940 | 114.46001 | 37191 ft | 474 kts | 357° |
| 2026-04-30 03:46 | 33.41562 | 114.46623 | 37186 ft | 476 kts | 357° |
| 2026-04-30 03:47 | 33.48200 | 114.47250 | 37197 ft | 473 kts | 358° |
| 2026-04-30 03:47 | 33.54781 | 114.47870 | 37184 ft | 474 kts | 358° |
| 2026-04-30 03:48 | 33.61407 | 114.48495 | 37176 ft | 477 kts | 358° |
| 2026-04-30 03:48 | 33.68017 | 114.49117 | 37171 ft | 466 kts | 358° |
| 2026-04-30 03:49 | 33.71189 | 114.49418 | 37166 ft | 454 kts | 358° |
| 2026-04-30 03:49 | 33.74328 | 114.49713 | 37180 ft | 448 kts | 358° |
| 2026-04-30 03:49 | 33.80589 | 114.50294 | 37174 ft | 453 kts | 358° |
| 2026-04-30 03:50 | 33.86904 | 114.50887 | 37174 ft | 449 kts | 358° |
| 2026-04-30 03:50 | 33.93131 | 114.51472 | 37164 ft | 450 kts | 358° |
| 2026-04-30 03:51 | 33.99418 | 114.52065 | 37154 ft | 450 kts | 358° |
| 2026-04-30 03:51 | 34.05664 | 114.52656 | 37142 ft | 449 kts | 359° |
| 2026-04-30 03:52 | 34.11929 | 114.53249 | 37158 ft | 450 kts | 358° |
| 2026-04-30 03:52 | 34.18170 | 114.53841 | 37162 ft | 448 kts | 359° |
| 2026-04-30 03:53 | 34.24365 | 114.54429 | 37156 ft | 448 kts | 359° |
| 2026-04-30 03:53 | 34.30584 | 114.55019 | 37158 ft | 449 kts | 359° |
| 2026-04-30 03:54 | 34.36885 | 114.55620 | 37144 ft | 448 kts | 359° |
| 2026-04-30 03:54 | 34.43074 | 114.56210 | 37155 ft | 450 kts | 359° |
| 2026-04-30 03:55 | 34.49346 | 114.56807 | 37149 ft | 447 kts | 359° |
| 2026-04-30 03:55 | 34.55569 | 114.57396 | 37141 ft | 449 kts | 359° |
| 2026-04-30 03:56 | 34.61773 | 114.57984 | 37149 ft | 448 kts | 359° |
| 2026-04-30 03:56 | 34.68002 | 114.58577 | 37145 ft | 447 kts | 359° |
| 2026-04-30 03:57 | 34.74235 | 114.59170 | 37137 ft | 447 kts | 359° |
| 2026-04-30 03:57 | 34.80450 | 114.59763 | 37139 ft | 446 kts | 359° |
| 2026-04-30 03:58 | 34.86697 | 114.60358 | 37137 ft | 448 kts | 359° |
| 2026-04-30 03:58 | 34.92906 | 114.60952 | 37135 ft | 447 kts | 359° |
| 2026-04-30 03:59 | 34.99121 | 114.61547 | 37130 ft | 447 kts | 360° |
| 2026-04-30 03:59 | 35.05324 | 114.62141 | 37124 ft | 448 kts | 360° |
| 2026-04-30 04:00 | 35.11533 | 114.62738 | 37132 ft | 446 kts | 360° |
| 2026-04-30 04:00 | 35.17768 | 114.63338 | 37137 ft | 447 kts | 360° |
| 2026-04-30 04:01 | 35.23974 | 114.63936 | 37126 ft | 446 kts | 0° |
| 2026-04-30 04:01 | 35.30173 | 114.64534 | 37116 ft | 445 kts | 0° |
| 2026-04-30 04:02 | 35.37398 | 114.65232 | 37119 ft | 446 kts | 0° |
| 2026-04-30 04:02 | 35.42568 | 114.65733 | 37112 ft | 445 kts | 0° |
| 2026-04-30 04:03 | 35.48779 | 114.66335 | 37118 ft | 446 kts | 1° |
| 2026-04-30 04:03 | 35.54967 | 114.66936 | 37106 ft | 444 kts | 1° |
| 2026-04-30 04:04 | 35.61160 | 114.67537 | 37103 ft | 447 kts | 1° |
| 2026-04-30 04:04 | 35.67353 | 114.68141 | 37103 ft | 444 kts | 1° |
| 2026-04-30 04:05 | 35.73561 | 114.68746 | 37100 ft | 445 kts | 1° |
| 2026-04-30 04:05 | 35.79710 | 114.69347 | 37092 ft | 444 kts | 1° |
| 2026-04-30 04:06 | 35.85886 | 114.69952 | 37097 ft | 444 kts | 1° |
| 2026-04-30 04:06 | 35.92086 | 114.70559 | 37090 ft | 445 kts | 1° |
| 2026-04-30 04:07 | 35.98277 | 114.71167 | 37091 ft | 444 kts | 1° |
| 2026-04-30 04:08 | 36.07520 | 114.72076 | 37096 ft | 444 kts | 1° |
| 2026-04-30 04:08 | 36.13697 | 114.72681 | 37097 ft | 444 kts | 1° |
| 2026-04-30 04:09 | 36.19909 | 114.73288 | 37099 ft | 444 kts | 1° |
| 2026-04-30 04:09 | 36.26033 | 114.73888 | 37108 ft | 445 kts | 1° |
| 2026-04-30 04:10 | 36.32245 | 114.74505 | 37109 ft | 443 kts | 2° |
| 2026-04-30 04:10 | 36.38371 | 114.74977 | 37102 ft | 441 kts | 356° |
| 2026-04-30 04:11 | 36.44511 | 114.74717 | 37097 ft | 441 kts | 355° |
| 2026-04-30 04:11 | 36.50668 | 114.74432 | 37096 ft | 439 kts | 356° |
| 2026-04-30 04:12 | 36.56792 | 114.74151 | 37087 ft | 440 kts | 355° |
| 2026-04-30 04:12 | 36.62901 | 114.73872 | 37093 ft | 440 kts | 355° |
| 2026-04-30 04:12 | 36.65989 | 114.73731 | 36931 ft | 439 kts | 356° |
| 2026-04-30 04:13 | 36.69026 | 114.73592 | 37072 ft | 441 kts | 356° |
| 2026-04-30 04:13 | 36.75259 | 114.73544 | 37066 ft | 445 kts | 3° |
| 2026-04-30 04:14 | 36.81266 | 114.75318 | 37063 ft | 450 kts | 18° |
| 2026-04-30 04:14 | 36.87040 | 114.78590 | 37061 ft | 453 kts | 21° |
| 2026-04-30 04:15 | 36.92769 | 114.81937 | 37074 ft | 455 kts | 21° |
| 2026-04-30 04:15 | 36.98515 | 114.85294 | 37074 ft | 454 kts | 21° |
| 2026-04-30 04:16 | 37.04246 | 114.88644 | 37067 ft | 453 kts | 21° |
| 2026-04-30 04:16 | 37.09948 | 114.91979 | 37061 ft | 452 kts | 21° |
| 2026-04-30 04:17 | 37.15691 | 114.95343 | 37086 ft | 454 kts | 21° |
| 2026-04-30 04:17 | 37.21417 | 114.98704 | 37073 ft | 452 kts | 21° |
| 2026-04-30 04:18 | 37.27149 | 115.02072 | 37090 ft | 454 kts | 21° |
| 2026-04-30 04:18 | 37.32885 | 115.05450 | 37077 ft | 453 kts | 21° |
| 2026-04-30 04:19 | 37.38610 | 115.08825 | 37081 ft | 453 kts | 21° |
| 2026-04-30 04:19 | 37.44317 | 115.12196 | 37084 ft | 453 kts | 22° |
| 2026-04-30 04:20 | 37.50052 | 115.15590 | 37088 ft | 452 kts | 21° |
| 2026-04-30 04:20 | 37.55762 | 115.18971 | 37071 ft | 452 kts | 22° |
| 2026-04-30 04:21 | 37.61501 | 115.22374 | 37078 ft | 455 kts | 22° |
| 2026-04-30 04:21 | 37.67231 | 115.25778 | 37065 ft | 454 kts | 22° |
| 2026-04-30 04:22 | 37.72951 | 115.29182 | 37064 ft | 456 kts | 22° |
| 2026-04-30 04:22 | 37.78801 | 115.32237 | 37072 ft | 452 kts | 13° |
| 2026-04-30 04:23 | 37.85001 | 115.33300 | 37079 ft | 446 kts | 358° |
| 2026-04-30 04:23 | 37.91196 | 115.32599 | 37069 ft | 446 kts | 352° |
| 2026-04-30 04:24 | 37.97372 | 115.31715 | 37079 ft | 446 kts | 353° |
| 2026-04-30 04:24 | 38.03563 | 115.30833 | 37087 ft | 447 kts | 352° |
| 2026-04-30 04:25 | 38.09709 | 115.29958 | 37061 ft | 444 kts | 352° |
| 2026-04-30 04:25 | 38.15880 | 115.29047 | 37083 ft | 446 kts | 352° |
| 2026-04-30 04:26 | 38.22057 | 115.28132 | 37072 ft | 445 kts | 353° |
| 2026-04-30 04:26 | 38.28217 | 115.27219 | 37054 ft | 446 kts | 353° |
| 2026-04-30 04:27 | 38.34383 | 115.26305 | 37059 ft | 446 kts | 353° |
| 2026-04-30 04:27 | 38.40583 | 115.25385 | 37056 ft | 444 kts | 353° |
| 2026-04-30 04:28 | 38.46744 | 115.24560 | 37057 ft | 444 kts | 357° |
| 2026-04-30 04:28 | 38.52882 | 115.25349 | 36928 ft | 443 kts | 12° |
| 2026-04-30 04:28 | 38.55827 | 115.26499 | 36308 ft | 445 kts | 19° |
| 2026-04-30 04:29 | 38.58643 | 115.28152 | 35657 ft | 451 kts | 26° |
| 2026-04-30 04:29 | 38.61312 | 115.30328 | 34955 ft | 459 kts | 34° |
| 2026-04-30 04:29 | 38.63749 | 115.32993 | 34035 ft | 466 kts | 41° |
| 2026-04-30 04:29 | 38.65901 | 115.36150 | 33076 ft | 472 kts | 49° |
| 2026-04-30 04:30 | 38.67660 | 115.39662 | 32217 ft | 475 kts | 57° |
| 2026-04-30 04:30 | 38.69066 | 115.43489 | 31347 ft | 477 kts | 62° |
| 2026-04-30 04:30 | 38.70374 | 115.47349 | 30354 ft | 466 kts | 62° |
| 2026-04-30 04:30 | 38.71646 | 115.51063 | 29933 ft | 444 kts | 61° |
| 2026-04-30 04:31 | 38.72994 | 115.54458 | 29634 ft | 426 kts | 55° |
| 2026-04-30 04:31 | 38.74515 | 115.57834 | 29217 ft | 446 kts | 56° |
| 2026-04-30 04:31 | 38.76092 | 115.61300 | 28583 ft | 448 kts | 55° |
| 2026-04-30 04:31 | 38.77642 | 115.64698 | 28021 ft | 443 kts | 55° |
| 2026-04-30 04:32 | 38.79176 | 115.68050 | 27508 ft | 436 kts | 56° |
| 2026-04-30 04:32 | 38.80719 | 115.71418 | 27001 ft | 429 kts | 56° |
| 2026-04-30 04:32 | 38.82206 | 115.74659 | 26495 ft | 423 kts | 56° |
| 2026-04-30 04:32 | 38.83695 | 115.77902 | 25985 ft | 417 kts | 56° |
| 2026-04-30 04:33 | 38.85148 | 115.81067 | 25490 ft | 411 kts | 56° |
| 2026-04-30 04:33 | 38.86603 | 115.84236 | 24961 ft | 406 kts | 56° |
| 2026-04-30 04:33 | 38.88020 | 115.87323 | 24445 ft | 400 kts | 56° |
| 2026-04-30 04:33 | 38.89426 | 115.90391 | 23940 ft | 395 kts | 56° |
| 2026-04-30 04:34 | 38.90830 | 115.93446 | 23446 ft | 407 kts | 56° |
| 2026-04-30 04:34 | 38.92274 | 115.96599 | 22910 ft | 407 kts | 56° |
| 2026-04-30 04:34 | 38.93718 | 115.99753 | 22376 ft | 402 kts | 56° |
| 2026-04-30 04:34 | 38.95123 | 116.02830 | 21857 ft | 397 kts | 56° |
| 2026-04-30 04:35 | 38.96516 | 116.05880 | 21341 ft | 393 kts | 56° |
| 2026-04-30 04:35 | 38.98038 | 116.08772 | 20832 ft | 388 kts | 48° |
| 2026-04-30 04:35 | 38.99894 | 116.11281 | 20312 ft | 385 kts | 39° |
| 2026-04-30 04:35 | 39.02024 | 116.13341 | 19788 ft | 381 kts | 31° |
| 2026-04-30 04:36 | 39.04345 | 116.14899 | 19274 ft | 377 kts | 22° |
| 2026-04-30 04:36 | 39.06845 | 116.15959 | 18774 ft | 376 kts | 14° |
| 2026-04-30 04:36 | 39.09450 | 116.16486 | 18248 ft | 375 kts | 5° |
| 2026-04-30 04:36 | 39.12043 | 116.16466 | 17737 ft | 374 kts | 356° |
| 2026-04-30 04:37 | 39.14625 | 116.16070 | 17233 ft | 372 kts | 354° |
| 2026-04-30 04:37 | 39.17181 | 116.15643 | 16711 ft | 369 kts | 354° |
| 2026-04-30 04:37 | 39.19719 | 116.15231 | 16185 ft | 367 kts | 355° |
| 2026-04-30 04:37 | 39.22259 | 116.14827 | 15658 ft | 366 kts | 355° |
| 2026-04-30 04:38 | 39.24819 | 116.14426 | 15148 ft | 365 kts | 355° |
| 2026-04-30 04:38 | 39.27343 | 116.14033 | 14635 ft | 363 kts | 355° |
| 2026-04-30 04:38 | 39.29819 | 116.13650 | 14118 ft | 360 kts | 355° |
| 2026-04-30 04:38 | 39.32326 | 116.13262 | 13592 ft | 358 kts | 355° |
| 2026-04-30 04:39 | 39.34804 | 116.12880 | 13072 ft | 355 kts | 354° |
| 2026-04-30 04:39 | 39.37244 | 116.12505 | 12566 ft | 354 kts | 354° |
| 2026-04-30 04:39 | 39.39684 | 116.12129 | 12050 ft | 352 kts | 354° |
| 2026-04-30 04:39 | 39.42112 | 116.11755 | 11529 ft | 349 kts | 354° |
| 2026-04-30 04:40 | 39.44515 | 116.11385 | 11034 ft | 345 kts | 354° |
| 2026-04-30 04:40 | 39.46884 | 116.11019 | 10845 ft | 333 kts | 354° |
| 2026-04-30 04:40 | 39.49132 | 116.10672 | 10738 ft | 319 kts | 354° |
| 2026-04-30 04:40 | 39.51307 | 116.10338 | 10611 ft | 306 kts | 354° |
| 2026-04-30 04:41 | 39.53374 | 116.10023 | 10505 ft | 294 kts | 354° |
| 2026-04-30 04:41 | 39.55397 | 116.09715 | 10376 ft | 283 kts | 354° |
| 2026-04-30 04:41 | 39.57317 | 116.09422 | 10244 ft | 273 kts | 353° |
| 2026-04-30 04:41 | 39.59159 | 116.09141 | 10146 ft | 262 kts | 354° |
| 2026-04-30 04:42 | 39.60965 | 116.08865 | 10041 ft | 252 kts | 354° |
| 2026-04-30 04:42 | 39.62704 | 116.08600 | 9742 ft | 250 kts | 353° |
| 2026-04-30 04:42 | 39.64437 | 116.08335 | 9390 ft | 250 kts | 353° |
| 2026-04-30 04:42 | 39.66148 | 116.08073 | 9077 ft | 249 kts | 353° |
| 2026-04-30 04:43 | 39.67883 | 116.07807 | 8766 ft | 248 kts | 353° |
| 2026-04-30 04:43 | 39.69599 | 116.07544 | 8468 ft | 247 kts | 353° |
| 2026-04-30 04:43 | 39.71296 | 116.07284 | 8173 ft | 246 kts | 353° |
| 2026-04-30 04:43 | 39.73018 | 116.07098 | 7859 ft | 246 kts | 3° |
| 2026-04-30 04:44 | 39.74695 | 116.07700 | 7540 ft | 260 kts | 27° |
| 2026-04-30 04:44 | 39.76068 | 116.09272 | 7201 ft | 265 kts | 54° |
| 2026-04-30 04:44 | 39.76757 | 116.11494 | 6910 ft | 269 kts | 77° |
| 2026-04-30 04:44 | 39.77027 | 116.13886 | 6632 ft | 271 kts | 81° |
| 2026-04-30 04:45 | 39.77246 | 116.16322 | 6312 ft | 271 kts | 81° |
| 2026-04-30 04:45 | 39.77471 | 116.18764 | 5990 ft | 271 kts | 81° |
| 2026-04-30 04:45 | 39.77697 | 116.21168 | 5883 ft | 261 kts | 81° |
| 2026-04-30 04:45 | 39.77910 | 116.23450 | 5851 ft | 249 kts | 81° |
| 2026-04-30 04:46 | 39.78106 | 116.25648 | 5718 ft | 241 kts | 81° |
| 2026-04-30 04:46 | 39.78299 | 116.27814 | 5585 ft | 236 kts | 81° |
| 2026-04-30 04:46 | 39.78487 | 116.29916 | 5475 ft | 234 kts | 82° |
| 2026-04-30 04:46 | 39.78387 | 116.31995 | 5330 ft | 228 kts | 109° |
| 2026-04-30 04:47 | 39.77549 | 116.33659 | 5196 ft | 214 kts | 137° |
| 2026-04-30 04:47 | 39.76289 | 116.34606 | 4934 ft | 210 kts | 163° |
| 2026-04-30 04:47 | 39.74898 | 116.35053 | 4689 ft | 206 kts | 172° |
| 2026-04-30 04:47 | 39.73478 | 116.35284 | 4425 ft | 203 kts | 174° |
| 2026-04-30 04:48 | 39.72066 | 116.35498 | 4127 ft | 201 kts | 173° |
| 2026-04-30 04:48 | 39.70731 | 116.35706 | 3922 ft | 187 kts | 173° |
| 2026-04-30 04:48 | 39.69405 | 116.35917 | 3674 ft | 187 kts | 173° |
| 2026-04-30 04:48 | 39.68163 | 116.36117 | 3423 ft | 173 kts | 173° |
| 2026-04-30 04:49 | 39.67006 | 116.36307 | 3194 ft | 164 kts | 174° |
| 2026-04-30 04:49 | 39.65870 | 116.36486 | 2967 ft | 160 kts | 174° |
| 2026-04-30 04:49 | 39.64785 | 116.36656 | 2749 ft | 156 kts | 174° |
| 2026-04-30 04:49 | 39.63718 | 116.36826 | 2534 ft | 152 kts | 174° |
| 2026-04-30 04:50 | 39.62670 | 116.36984 | 2320 ft | 151 kts | 174° |
| 2026-04-30 04:50 | 39.61630 | 116.37151 | 2106 ft | 149 kts | 174° |
| 2026-04-30 04:50 | 39.60604 | 116.37318 | 1895 ft | 147 kts | 174° |
| 2026-04-30 04:50 | 39.59580 | 116.37482 | 1688 ft | 147 kts | 173° |
| 2026-04-30 04:51 | 39.58569 | 116.37644 | 1482 ft | 145 kts | 173° |
| 2026-04-30 04:51 | 39.57558 | 116.37806 | 1275 ft | 145 kts | 173° |
| 2026-04-30 04:51 | 39.56552 | 116.37973 | 1054 ft | 144 kts | 175° |
| 2026-04-30 04:51 | 39.55555 | 116.38119 | 844 ft | 144 kts | 175° |
| 2026-04-30 04:52 | 39.54553 | 116.38288 | 624 ft | 143 kts | 174° |
| 2026-04-30 04:52 | 39.53576 | 116.38433 | 438 ft | 142 kts | 177° |
| 2026-04-30 04:52 | 39.52585 | 116.38590 | 276 ft | 141 kts | 175° |
| 2026-04-30 04:52 | 39.51609 | 116.38750 | 128 ft | 140 kts | 175° |
| 2026-04-30 04:53 | 39.50679 | 116.38899 | 97 ft | 116 kts | 165° |
| 2026-04-30 04:53 | 39.50003 | 116.39028 | 97 ft | 80 kts | 173° |
| 2026-04-30 04:53 | 39.49569 | 116.39089 | 97 ft | 38 kts | 171° |
| 2026-04-30 04:53 | 39.49343 | 116.39184 | 97 ft | 30 kts | 148° |
| 2026-04-30 04:54 | 39.49176 | 116.39331 | 97 ft | 27 kts | 147° |
| 2026-04-30 04:54 | 39.49026 | 116.39458 | 97 ft | 24 kts | 138° |
| 2026-04-30 04:54 | 39.49015 | 116.39571 | 96 ft | 11 kts | 81° |
| 2026-04-30 04:54 | 39.49023 | 116.39667 | 97 ft | 10 kts | 82° |
| 2026-04-30 04:55 | 39.49032 | 116.39760 | 97 ft | 10 kts | 83° |
| 2026-04-30 04:55 | 39.49041 | 116.39849 | 96 ft | 9 kts | 83° |
| 2026-04-30 04:55 | 39.49049 | 116.39934 | 96 ft | 9 kts | 82° |
| 2026-04-30 04:55 | 39.49058 | 116.40024 | 96 ft | 12 kts | 83° |
| 2026-04-30 04:56 | 39.49072 | 116.40179 | 97 ft | 19 kts | 82° |
| 2026-04-30 04:56 | 39.49100 | 116.40345 | 96 ft | 17 kts | 51° |
| 2026-04-30 04:56 | 39.49203 | 116.40358 | 96 ft | 14 kts | 352° |
| 2026-04-30 04:56 | 39.49302 | 116.40343 | 96 ft | 13 kts | 352° |
| 2026-04-30 04:57 | 39.49394 | 116.40328 | 96 ft | 12 kts | 352° |
| 2026-04-30 04:57 | 39.49480 | 116.40314 | 96 ft | 12 kts | 353° |
| 2026-04-30 04:57 | 39.49562 | 116.40302 | 96 ft | 11 kts | 353° |
| 2026-04-30 04:57 | 39.49639 | 116.40289 | 96 ft | 10 kts | 351° |
| 2026-04-30 04:58 | 39.49712 | 116.40279 | 96 ft | 10 kts | 353° |
| 2026-04-30 04:58 | 39.49783 | 116.40266 | 96 ft | 9 kts | 351° |
| 2026-04-30 04:58 | 39.49849 | 116.40256 | 96 ft | 9 kts | 353° |
| 2026-04-30 04:58 | 39.49913 | 116.40246 | 96 ft | 8 kts | 353° |
| 2026-04-30 04:59 | 39.49988 | 116.40234 | 97 ft | 16 kts | 353° |
| 2026-04-30 04:59 | 39.50140 | 116.40209 | 97 ft | 24 kts | 351° |
| 2026-04-30 04:59 | 39.50304 | 116.40184 | 96 ft | 22 kts | 352° |
| 2026-04-30 04:59 | 39.50451 | 116.40160 | 97 ft | 20 kts | 353° |
| 2026-04-30 05:00 | 39.50584 | 116.40141 | 97 ft | 14 kts | 353° |
| 2026-04-30 05:00 | 39.50641 | 116.40173 | 97 ft | 8 kts | 83° |
| 2026-04-30 05:00 | 39.50657 | 116.40242 | 97 ft | 7 kts | 46° |
| 2026-04-30 05:00 | 39.50703 | 116.40247 | 97 ft | 6 kts | 333° |
| 2026-04-30 05:01 | 39.50741 | 116.40231 | 97 ft | 4 kts | 20° |
| 2026-04-30 05:01 | 39.50756 | 116.40263 | 97 ft | 4 kts | 81° |
| 2026-04-30 05:01 | 39.50753 | 116.40303 | 97 ft | 4 kts | 98° |
| 2026-04-30 05:01 | 39.50748 | 116.40341 | 96 ft | 2 kts | 98° |
| 2026-04-30 05:02 | 39.50747 | 116.40356 | 96 ft | 0 kts | 98° |